createdAt,value
2018-06-21T00:00:45.423Z,2.8
2018-06-21T00:01:45.352Z,2.9
2018-06-21T00:09:17.686Z,2.8
2018-06-21T00:09:26.216Z,2.7
2018-06-21T00:10:26.608Z,2.7
2018-06-21T00:11:26.100Z,2.5
2018-06-21T00:12:26.675Z,2.8
2018-06-21T00:13:26.229Z,2.7
2018-06-21T00:14:26.297Z,2.6
2018-06-21T00:15:26.596Z,2.8
2018-06-21T00:16:26.750Z,2.8
2018-06-21T00:17:26.032Z,2.4
2018-06-21T00:18:25.974Z,2.5
2018-06-21T00:19:26.147Z,2.5
2018-06-21T00:20:26.131Z,2.6
2018-06-21T00:21:26.488Z,2.5
2018-06-21T00:22:26.417Z,2.5
2018-06-21T00:23:26.202Z,2.7
2018-06-21T00:24:26.454Z,2.7
2018-06-21T00:25:26.467Z,2.5
2018-06-21T00:26:26.436Z,2.7
2018-06-21T00:27:26.424Z,2.9
2018-06-21T00:28:26.454Z,2.8
2018-06-21T00:29:26.036Z,2.9
2018-06-21T00:30:26.653Z,2.7
2018-06-21T00:31:26.387Z,2.8
2018-06-21T00:32:26.040Z,2.7
2018-06-21T00:33:26.483Z,2.7
2018-06-21T00:34:26.004Z,2.9
2018-06-21T00:35:26.202Z,2.6
2018-06-21T00:36:26.199Z,3.1
2018-06-21T00:37:26.151Z,2.5
2018-06-21T00:38:26.457Z,2.8
2018-06-21T00:39:26.423Z,2.8
2018-06-21T00:40:26.420Z,2.9
2018-06-21T00:41:26.145Z,2.6
2018-06-21T00:42:26.079Z,2.6
2018-06-21T00:43:26.470Z,2.6
2018-06-21T00:44:26.196Z,2.9
2018-06-21T00:47:07.712Z,2.6
2018-06-21T00:47:16.512Z,2.8
2018-06-21T00:48:16.528Z,2.8
2018-06-21T00:49:16.096Z,2.7
2018-06-21T00:50:16.158Z,2.7
2018-06-21T00:51:15.942Z,2.7
2018-06-21T00:52:16.474Z,2.7
2018-06-21T00:53:16.141Z,2.6
2018-06-21T00:54:16.443Z,2.7
2018-06-21T00:55:15.977Z,2.8
2018-06-21T00:57:28.758Z,2.7
2018-06-21T00:58:28.970Z,2.9
2018-06-21T00:59:29.346Z,2.7
2018-06-21T01:00:29.320Z,2.7
2018-06-21T01:01:28.978Z,2.7
2018-06-21T01:02:29.311Z,2.8
2018-06-21T01:03:29.276Z,2.7
2018-06-21T01:04:28.860Z,2.7
2018-06-21T01:05:29.341Z,2.6
2018-06-21T01:06:29.481Z,2.7
2018-06-21T01:07:28.978Z,2.9
2018-06-21T01:08:29.546Z,2.8
2018-06-21T01:09:28.862Z,2.8
2018-06-21T01:10:29.421Z,2.5
2018-06-21T01:11:29.258Z,3.0
2018-06-21T01:12:29.832Z,2.9
2018-06-21T01:13:28.862Z,2.9
2018-06-21T01:14:29.139Z,2.7
2018-06-21T01:15:29.354Z,2.8
2018-06-21T01:16:29.050Z,2.7
2018-06-21T01:17:28.905Z,2.6
2018-06-21T01:18:29.319Z,2.7
2018-06-21T01:19:29.003Z,2.8
2018-06-21T01:20:29.075Z,2.6
2018-06-21T01:21:28.814Z,2.9
2018-06-21T01:22:29.053Z,2.7
2018-06-21T01:23:28.897Z,2.8
2018-06-21T01:24:31.411Z,2.6
2018-06-21T01:25:29.459Z,2.7
2018-06-21T01:26:29.022Z,2.6
2018-06-21T01:27:29.730Z,2.8
2018-06-21T01:28:29.291Z,3.0
2018-06-21T01:29:28.949Z,2.8
2018-06-21T01:30:29.329Z,2.6
2018-06-21T01:31:28.988Z,2.7
2018-06-21T01:32:29.381Z,2.7
2018-06-21T01:33:29.102Z,2.5
2018-06-21T01:34:31.118Z,2.7
2018-06-21T01:35:28.875Z,2.3
2018-06-21T01:36:29.498Z,2.7
2018-06-21T01:37:29.139Z,2.6
2018-06-21T01:38:29.704Z,2.5
2018-06-21T01:39:29.116Z,2.8
2018-06-21T01:40:29.057Z,2.7
2018-06-21T01:41:29.415Z,2.5
2018-06-21T01:42:29.276Z,3.2
2018-06-21T01:43:28.915Z,2.8
2018-06-21T01:44:29.359Z,2.5
2018-06-21T01:45:29.110Z,3.1
2018-06-21T01:46:30.258Z,2.7
2018-06-21T01:47:28.894Z,2.8
2018-06-21T01:48:29.318Z,2.7
2018-06-21T01:49:29.274Z,2.8
2018-06-21T01:50:29.109Z,2.5
2018-06-21T01:51:29.410Z,2.7
2018-06-21T01:52:30.096Z,2.6
2018-06-21T01:53:29.115Z,2.9
2018-06-21T01:54:29.318Z,2.8
2018-06-21T01:55:29.952Z,2.9
2018-06-21T01:56:28.960Z,2.8
2018-06-21T01:57:28.969Z,2.7
2018-06-21T01:58:28.931Z,2.8
2018-06-21T01:59:29.429Z,2.7
2018-06-21T02:00:29.126Z,2.7
2018-06-21T02:01:29.383Z,2.8
2018-06-21T02:02:39.506Z,3.0
2018-06-21T02:03:29.157Z,2.8
2018-06-21T02:04:29.472Z,2.9
2018-06-21T02:05:29.497Z,2.7
2018-06-21T02:06:29.440Z,2.7
2018-06-21T02:07:29.184Z,2.8
2018-06-21T02:08:28.997Z,2.9
2018-06-21T02:09:29.151Z,2.9
2018-06-21T02:10:28.953Z,2.7
2018-06-21T02:11:28.940Z,2.7
2018-06-21T02:12:31.354Z,2.5
2018-06-21T02:13:29.397Z,2.8
2018-06-21T02:14:29.006Z,2.9
2018-06-21T02:15:29.419Z,2.8
2018-06-21T02:16:28.931Z,2.9
2018-06-21T02:17:29.120Z,2.6
2018-06-21T02:18:30.033Z,2.9
2018-06-21T02:19:28.967Z,2.6
2018-06-21T02:20:29.363Z,3.0
2018-06-21T02:21:28.958Z,2.6
2018-06-21T02:23:29.636Z,2.9
2018-06-21T02:24:30.258Z,2.7
2018-06-21T02:25:34.638Z,2.8
2018-06-21T02:26:29.487Z,2.6
2018-06-21T02:27:29.069Z,2.6
2018-06-21T02:28:29.113Z,3.0
2018-06-21T02:29:29.440Z,2.8
2018-06-21T02:30:29.029Z,2.8
2018-06-21T02:31:29.265Z,2.6
2018-06-21T02:32:29.593Z,2.6
2018-06-21T02:33:29.467Z,2.7
2018-06-21T02:34:29.197Z,2.7
2018-06-21T02:35:29.197Z,2.6
2018-06-21T02:36:29.527Z,2.7
2018-06-21T02:37:47.075Z,2.6
2018-06-21T02:38:29.273Z,2.7
2018-06-21T02:39:29.240Z,2.8
2018-06-21T02:40:29.177Z,2.9
2018-06-21T02:41:29.137Z,2.8
2018-06-21T02:42:29.509Z,2.8
2018-06-21T02:43:30.207Z,2.9
2018-06-21T02:44:29.475Z,2.9
2018-06-21T02:45:29.979Z,2.7
2018-06-21T02:46:29.450Z,2.8
2018-06-21T02:47:29.005Z,2.9
2018-06-21T02:48:29.235Z,2.6
2018-06-21T02:49:29.324Z,2.9
2018-06-21T02:50:30.610Z,2.6
2018-06-21T02:51:29.203Z,3.1
2018-06-21T02:52:29.162Z,2.7
2018-06-21T02:53:29.549Z,2.8
2018-06-21T02:54:29.459Z,2.8
2018-06-21T02:55:28.995Z,2.8
2018-06-21T02:56:29.934Z,2.6
2018-06-21T02:57:29.605Z,2.7
2018-06-21T02:58:29.512Z,2.6
2018-06-21T02:59:29.282Z,2.9
2018-06-21T03:00:29.505Z,2.7
2018-06-21T03:01:29.588Z,2.7
2018-06-21T03:02:29.020Z,2.7
2018-06-21T03:03:29.449Z,2.8
2018-06-21T03:04:29.588Z,2.8
2018-06-21T03:05:30.284Z,2.7
2018-06-21T03:06:29.259Z,2.8
2018-06-21T03:07:29.018Z,2.7
2018-06-21T03:08:29.184Z,2.6
2018-06-21T03:10:42.350Z,2.8
2018-06-21T03:11:42.223Z,2.8
2018-06-21T03:12:43.290Z,2.9
2018-06-21T03:13:41.986Z,2.7
2018-06-21T03:14:42.437Z,2.9
2018-06-21T03:15:42.116Z,2.6
2018-06-21T03:16:42.370Z,2.7
2018-06-21T03:17:41.931Z,2.8
2018-06-21T03:18:42.374Z,2.8
2018-06-21T03:19:42.397Z,2.6
2018-06-21T03:20:41.934Z,2.7
2018-06-21T03:21:43.109Z,2.6
2018-06-21T03:22:42.122Z,2.8
2018-06-21T03:23:42.250Z,2.7
2018-06-21T03:24:42.975Z,2.8
2018-06-21T03:25:42.386Z,2.9
2018-06-21T03:26:41.966Z,2.9
2018-06-21T03:27:42.173Z,2.7
2018-06-21T03:28:44.230Z,2.7
2018-06-21T03:29:41.897Z,3.0
2018-06-21T03:30:42.239Z,2.7
2018-06-21T03:31:42.405Z,2.7
2018-06-21T03:32:42.523Z,2.7
2018-06-21T03:33:42.336Z,2.7
2018-06-21T03:34:42.484Z,2.8
2018-06-21T03:35:41.966Z,2.6
2018-06-21T03:36:42.055Z,2.9
2018-06-21T03:37:41.934Z,2.8
2018-06-21T03:38:43.622Z,2.8
2018-06-21T03:39:42.392Z,2.7
2018-06-21T03:40:41.939Z,2.7
2018-06-21T03:41:43.158Z,2.7
2018-06-21T03:42:41.926Z,2.8
2018-06-21T03:43:42.051Z,2.7
2018-06-21T03:44:42.435Z,2.9
2018-06-21T03:45:41.896Z,2.9
2018-06-21T03:46:42.454Z,2.8
2018-06-21T03:47:43.075Z,2.7
2018-06-21T03:48:42.397Z,2.8
2018-06-21T03:49:42.008Z,2.8
2018-06-21T03:50:41.993Z,2.8
2018-06-21T03:51:42.429Z,2.8
2018-06-21T03:52:42.398Z,3.0
2018-06-21T03:53:42.449Z,2.6
2018-06-21T03:54:42.888Z,2.8
2018-06-21T03:55:42.940Z,2.9
2018-06-21T03:56:52.356Z,2.8
2018-06-21T03:57:42.169Z,2.9
2018-06-21T03:58:41.992Z,2.7
2018-06-21T03:59:42.138Z,2.8
2018-06-21T04:00:42.371Z,2.8
2018-06-21T04:01:42.482Z,2.8
2018-06-21T04:02:42.398Z,3.1
2018-06-21T04:03:42.023Z,3.1
2018-06-21T04:04:42.117Z,2.9
2018-06-21T04:05:42.521Z,2.9
2018-06-21T04:06:45.008Z,2.9
2018-06-21T04:07:42.483Z,2.9
2018-06-21T04:08:42.898Z,2.9
2018-06-21T04:09:43.140Z,3.1
2018-06-21T04:10:42.194Z,2.7
2018-06-21T04:11:43.153Z,3.1
2018-06-21T04:12:42.277Z,2.8
2018-06-21T04:13:42.466Z,2.9
2018-06-21T04:14:41.999Z,2.8
2018-06-21T04:15:42.208Z,2.9
2018-06-21T04:16:42.457Z,3.0
2018-06-21T04:17:42.476Z,2.9
2018-06-21T04:18:42.210Z,2.9
2018-06-21T04:19:42.512Z,2.9
2018-06-21T04:20:42.232Z,2.8
2018-06-21T04:21:42.212Z,3.0
2018-06-21T04:22:42.194Z,3.1
2018-06-21T04:23:42.113Z,3.1
2018-06-21T04:24:42.010Z,3.1
2018-06-21T04:25:42.527Z,3.3
2018-06-21T04:26:44.564Z,3.1
2018-06-21T04:27:42.028Z,3.0
2018-06-21T04:28:42.275Z,3.1
2018-06-21T04:29:42.067Z,3.1
2018-06-21T04:30:42.564Z,3.1
2018-06-21T04:31:43.494Z,3.2
2018-06-21T04:32:42.133Z,3.1
2018-06-21T04:33:42.093Z,2.8
2018-06-21T04:34:42.090Z,3.0
2018-06-21T04:35:42.039Z,3.2
2018-06-21T04:36:42.555Z,3.0
2018-06-21T04:37:43.203Z,3.1
2018-06-21T04:38:42.595Z,3.0
2018-06-21T04:39:43.129Z,3.4
2018-06-21T04:40:42.611Z,3.1
2018-06-21T04:41:42.607Z,3.0
2018-06-21T04:42:43.168Z,3.2
2018-06-21T04:43:42.332Z,3.2
2018-06-21T04:44:42.105Z,3.2
2018-06-21T04:45:43.396Z,3.0
2018-06-21T04:46:42.780Z,2.9
2018-06-21T04:47:42.542Z,3.3
2018-06-21T04:48:42.716Z,3.2
2018-06-21T04:49:42.524Z,3.4
2018-06-21T04:50:42.355Z,3.2
2018-06-21T04:51:47.267Z,3.2
2018-06-21T04:52:50.105Z,3.2
2018-06-21T04:53:44.872Z,3.7
2018-06-21T04:54:44.952Z,3.5
2018-06-21T04:55:50.564Z,3.7
2018-06-21T04:56:45.088Z,3.3
2018-06-21T04:57:49.643Z,3.4
2018-06-21T04:58:46.821Z,3.6
2018-06-21T04:59:44.666Z,3.3
2018-06-21T05:00:43.613Z,3.4
2018-06-21T05:01:44.505Z,3.4
2018-06-21T05:02:44.046Z,3.5
2018-06-21T05:04:45.259Z,3.1
2018-06-21T05:05:42.568Z,3.3
2018-06-21T05:06:58.599Z,4.0
2018-06-21T05:07:43.085Z,4.5
2018-06-21T05:08:43.535Z,4.2
2018-06-21T05:09:43.478Z,4.3
2018-06-21T05:10:43.272Z,4.2
2018-06-21T05:11:43.442Z,4.0
2018-06-21T05:12:44.477Z,4.0
2018-06-21T05:13:44.246Z,4.0
2018-06-21T05:14:45.101Z,4.1
2018-06-21T05:15:43.046Z,3.9
2018-06-21T05:16:42.671Z,4.0
2018-06-21T05:17:43.690Z,4.3
2018-06-21T05:19:48.000Z,4.6
2018-06-21T05:20:48.440Z,4.2
2018-06-21T05:21:48.940Z,3.8
2018-06-21T05:22:42.901Z,4.1
2018-06-21T05:23:46.115Z,4.0
2018-06-21T05:24:49.937Z,4.2
2018-06-21T05:25:44.426Z,4.3
2018-06-21T05:26:49.824Z,4.1
2018-06-21T05:27:43.181Z,3.9
2018-06-21T05:28:42.836Z,4.4
2018-06-21T05:29:42.323Z,4.1
2018-06-21T05:30:42.810Z,4.1
2018-06-21T05:31:42.359Z,4.0
2018-06-21T05:32:42.356Z,4.1
2018-06-21T05:33:42.770Z,4.4
2018-06-21T05:34:43.746Z,4.1
2018-06-21T05:35:42.632Z,4.2
2018-06-21T05:36:43.326Z,4.3
2018-06-21T05:37:43.608Z,4.3
2018-06-21T05:38:42.808Z,4.4
2018-06-21T05:39:42.963Z,4.6
2018-06-21T05:40:42.580Z,4.1
2018-06-21T05:41:43.850Z,4.7
2018-06-21T05:42:43.990Z,4.7
2018-06-21T05:43:50.592Z,4.7
2018-06-21T05:45:51.096Z,4.6
2018-06-21T05:45:59.652Z,4.6
2018-06-21T05:46:59.305Z,4.4
2018-06-21T05:47:59.294Z,4.7
2018-06-21T05:48:59.700Z,4.8
2018-06-21T05:49:59.490Z,4.5
2018-06-21T05:50:59.806Z,4.9
2018-06-21T05:51:59.848Z,4.8
2018-06-21T05:52:59.717Z,4.6
2018-06-21T05:53:59.787Z,4.8
2018-06-21T05:54:59.748Z,4.9
2018-06-21T05:55:59.771Z,4.6
2018-06-21T05:56:59.496Z,4.6
2018-06-21T05:57:59.733Z,5.0
2018-06-21T05:58:59.477Z,4.8
2018-06-21T05:59:59.493Z,4.7
2018-06-21T06:00:59.858Z,4.5
2018-06-21T06:02:00.545Z,4.7
2018-06-21T06:02:59.310Z,4.5
2018-06-21T06:03:59.809Z,4.6
2018-06-21T06:04:59.393Z,4.8
2018-06-21T06:05:59.480Z,4.2
2018-06-21T06:06:59.590Z,4.4
2018-06-21T06:07:59.719Z,4.4
2018-06-21T06:08:59.307Z,4.4
2018-06-21T06:10:00.376Z,4.5
2018-06-21T06:10:59.825Z,4.3
2018-06-21T06:11:59.738Z,4.1
2018-06-21T06:12:59.779Z,4.2
2018-06-21T06:14:00.591Z,4.6
2018-06-21T06:14:59.374Z,4.2
2018-06-21T06:15:59.779Z,4.7
2018-06-21T06:16:59.839Z,4.4
2018-06-21T06:17:59.895Z,4.3
2018-06-21T06:18:59.360Z,4.4
2018-06-21T06:19:59.815Z,4.5
2018-06-21T06:20:59.520Z,4.5
2018-06-21T06:21:59.358Z,4.6
2018-06-21T06:22:59.412Z,4.3
2018-06-21T06:24:01.982Z,4.4
2018-06-21T06:24:59.378Z,4.5
2018-06-21T06:25:59.580Z,4.6
2018-06-21T06:26:59.341Z,4.6
2018-06-21T06:27:59.542Z,4.3
2018-06-21T06:28:59.821Z,4.4
2018-06-21T06:29:59.323Z,4.2
2018-06-21T06:30:59.891Z,4.3
2018-06-21T06:31:59.875Z,4.1
2018-06-21T06:32:59.820Z,4.2
2018-06-21T06:34:00.299Z,4.1
2018-06-21T06:34:59.591Z,4.0
2018-06-21T06:35:59.515Z,4.0
2018-06-21T06:37:00.160Z,3.5
2018-06-21T06:37:59.372Z,3.8
2018-06-21T06:38:59.367Z,3.5
2018-06-21T06:39:59.384Z,3.7
2018-06-21T06:40:59.375Z,3.5
2018-06-21T06:42:00.189Z,3.8
2018-06-21T06:43:00.346Z,3.5
2018-06-21T06:43:59.818Z,3.5
2018-06-21T06:44:59.396Z,3.5
2018-06-21T06:45:59.763Z,3.6
2018-06-21T06:47:00.464Z,3.4
2018-06-21T06:47:59.974Z,3.4
2018-06-21T06:49:00.794Z,3.5
2018-06-21T06:49:59.360Z,3.4
2018-06-21T06:50:59.626Z,3.4
2018-06-21T06:51:59.698Z,3.4
2018-06-21T06:52:59.605Z,3.5
2018-06-21T06:54:00.151Z,3.4
2018-06-21T06:54:59.717Z,3.4
2018-06-21T06:55:59.609Z,3.4
2018-06-21T06:56:59.889Z,3.4
2018-06-21T06:57:59.467Z,3.5
2018-06-21T06:58:59.916Z,3.4
2018-06-21T07:00:00.564Z,3.4
2018-06-21T07:00:59.387Z,3.5
2018-06-21T07:02:00.015Z,3.4
2018-06-21T07:02:59.894Z,3.8
2018-06-21T07:04:00.374Z,3.5
2018-06-21T07:04:59.904Z,3.6
2018-06-21T07:05:59.644Z,3.5
2018-06-21T07:06:59.515Z,3.7
2018-06-21T07:07:59.974Z,3.9
2018-06-21T07:08:59.603Z,3.8
2018-06-21T07:09:59.713Z,3.6
2018-06-21T07:11:00.480Z,3.8
2018-06-21T07:11:59.610Z,4.1
2018-06-21T07:12:59.902Z,3.9
2018-06-21T07:17:18.732Z,4.1
2018-06-21T07:17:26.908Z,4.0
2018-06-21T07:19:27.905Z,4.0
2018-06-21T07:20:27.167Z,4.0
2018-06-21T07:21:27.356Z,3.8
2018-06-21T07:22:27.153Z,3.9
2018-06-21T07:23:27.384Z,4.0
2018-06-21T07:24:27.347Z,3.9
2018-06-21T07:25:27.244Z,4.1
2018-06-21T07:26:27.238Z,4.0
2018-06-21T07:27:26.987Z,4.2
2018-06-21T07:28:27.948Z,4.0
2018-06-21T07:29:27.469Z,3.8
2018-06-21T07:30:27.327Z,4.1
2018-06-21T07:31:27.448Z,3.9
2018-06-21T07:32:27.456Z,3.9
2018-06-21T07:33:27.231Z,4.0
2018-06-21T07:34:27.788Z,4.0
2018-06-21T07:35:28.428Z,3.7
2018-06-21T07:36:27.097Z,3.9
2018-06-21T07:37:27.035Z,3.6
2018-06-21T07:38:27.153Z,3.8
2018-06-21T07:39:27.800Z,3.9
2018-06-21T07:40:26.967Z,3.7
2018-06-21T07:41:26.969Z,4.0
2018-06-21T07:42:27.441Z,3.7
2018-06-21T07:43:27.203Z,3.7
2018-06-21T07:44:27.027Z,3.7
2018-06-21T07:45:27.436Z,3.5
2018-06-21T07:46:27.141Z,3.9
2018-06-21T07:47:27.033Z,4.0
2018-06-21T07:48:27.192Z,4.1
2018-06-21T07:49:27.119Z,3.7
2018-06-21T07:50:27.180Z,4.1
2018-06-21T07:51:27.395Z,4.1
2018-06-21T07:52:27.387Z,4.0
2018-06-21T07:53:37.204Z,4.2
2018-06-21T07:54:27.412Z,4.1
2018-06-21T07:55:27.451Z,4.2
2018-06-21T07:56:27.548Z,4.2
2018-06-21T07:57:28.084Z,4.2
2018-06-21T07:58:27.571Z,4.6
2018-06-21T07:59:27.004Z,3.9
2018-06-21T08:00:27.441Z,4.6
2018-06-21T08:01:26.979Z,4.1
2018-06-21T08:02:27.533Z,4.0
2018-06-21T08:03:37.534Z,4.1
2018-06-21T08:04:27.552Z,4.1
2018-06-21T08:05:27.416Z,4.1
2018-06-21T08:06:27.412Z,4.3
2018-06-21T08:07:27.019Z,4.0
2018-06-21T08:08:27.533Z,4.1
2018-06-21T08:09:27.477Z,4.3
2018-06-21T08:10:27.134Z,3.9
2018-06-21T08:11:27.511Z,3.8
2018-06-21T08:12:28.084Z,3.7
2018-06-21T08:14:27.477Z,4.2
2018-06-21T08:15:27.501Z,3.9
2018-06-21T08:16:27.252Z,3.9
2018-06-21T08:17:27.172Z,4.1
2018-06-21T08:18:27.090Z,3.9
2018-06-21T08:19:27.250Z,3.9
2018-06-21T08:20:27.089Z,4.1
2018-06-21T08:21:27.057Z,4.1
2018-06-21T08:22:27.473Z,3.9
2018-06-21T08:23:27.644Z,3.8
2018-06-21T08:24:27.284Z,3.6
2018-06-21T08:25:27.212Z,3.5
2018-06-21T08:26:27.476Z,3.7
2018-06-21T08:27:27.524Z,3.8
2018-06-21T08:28:27.650Z,3.5
2018-06-21T08:29:27.630Z,3.6
2018-06-21T08:30:27.164Z,3.5
2018-06-21T08:31:27.037Z,3.6
2018-06-21T08:32:27.329Z,4.0
2018-06-21T08:33:27.319Z,3.4
2018-06-21T08:34:27.279Z,3.4
2018-06-21T08:35:28.171Z,3.5
2018-06-21T08:36:27.148Z,3.7
2018-06-21T08:37:27.086Z,3.4
2018-06-21T08:38:27.245Z,3.1
2018-06-21T08:39:27.577Z,3.5
2018-06-21T08:40:27.507Z,3.1
2018-06-21T08:41:27.518Z,3.1
2018-06-21T08:42:27.077Z,3.3
2018-06-21T08:43:27.763Z,3.3
2018-06-21T08:44:27.572Z,3.1
2018-06-21T08:45:27.144Z,3.2
2018-06-21T08:46:27.557Z,3.2
2018-06-21T08:47:27.735Z,3.3
2018-06-21T08:48:27.206Z,3.2
2018-06-21T08:49:27.617Z,3.3
2018-06-21T08:50:28.216Z,3.2
2018-06-21T08:51:27.981Z,3.1
2018-06-21T08:52:28.073Z,3.1
2018-06-21T08:53:27.698Z,3.1
2018-06-21T08:54:27.552Z,2.9
2018-06-21T08:55:27.504Z,2.7
2018-06-21T08:56:27.510Z,2.9
2018-06-21T08:57:27.145Z,2.6
2018-06-21T08:58:27.342Z,3.0
2018-06-21T08:59:27.612Z,2.8
2018-06-21T09:00:28.111Z,2.6
2018-06-21T09:01:28.568Z,2.8
2018-06-21T09:02:27.378Z,2.6
2018-06-21T09:03:27.170Z,3.0
2018-06-21T09:04:28.196Z,2.4
2018-06-21T09:05:27.336Z,2.7
2018-06-21T09:06:27.605Z,2.5
2018-06-21T09:07:27.333Z,2.6
2018-06-21T09:08:27.580Z,2.9
2018-06-21T09:09:27.325Z,2.6
2018-06-21T09:10:28.172Z,2.7
2018-06-21T09:11:27.218Z,2.5
2018-06-21T09:12:28.273Z,2.7
2018-06-21T09:13:27.225Z,2.5
2018-06-21T09:14:27.238Z,2.7
2018-06-21T09:15:27.852Z,2.8
2018-06-21T09:16:27.556Z,2.7
2018-06-21T09:17:27.613Z,3.0
2018-06-21T09:18:27.567Z,2.9
2018-06-21T09:19:27.168Z,2.9
2018-06-21T09:30:32.179Z,3.1
2018-06-21T09:31:31.629Z,2.9
2018-06-21T09:32:31.642Z,3.0
2018-06-21T09:33:32.239Z,3.1
2018-06-21T09:34:32.146Z,3.0
2018-06-21T09:35:32.116Z,2.9
2018-06-21T09:36:31.667Z,3.3
2018-06-21T09:37:31.811Z,3.0
2018-06-21T09:38:31.811Z,3.1
2018-06-21T09:39:32.079Z,2.9
2018-06-21T09:40:32.018Z,3.1
2018-06-21T09:41:31.638Z,2.9
2018-06-21T09:42:32.110Z,3.0
2018-06-21T09:43:31.663Z,3.5
2018-06-21T09:44:32.699Z,3.2
2018-06-21T09:45:31.651Z,3.3
2018-06-21T09:46:33.875Z,3.2
2018-06-21T09:47:31.655Z,3.1
2018-06-21T09:48:31.813Z,3.4
2018-06-21T09:49:31.954Z,3.1
2018-06-21T09:50:31.806Z,3.4
2018-06-21T09:51:32.658Z,3.4
2018-06-21T09:52:32.885Z,3.1
2018-06-21T09:53:31.874Z,3.1
2018-06-21T09:54:31.621Z,3.3
2018-06-21T09:55:31.692Z,3.3
2018-06-21T09:56:31.796Z,3.2
2018-06-21T09:57:32.033Z,3.0
2018-06-21T09:58:32.164Z,2.9
2018-06-21T09:59:32.215Z,3.2
2018-06-21T10:00:32.097Z,3.0
2018-06-21T10:01:32.120Z,3.2
2018-06-21T10:02:31.765Z,3.1
2018-06-21T10:03:32.164Z,3.0
2018-06-21T10:04:31.942Z,2.9
2018-06-21T10:05:31.839Z,2.8
2018-06-21T10:06:32.146Z,2.9
2018-06-21T10:07:32.173Z,2.9
2018-06-21T10:08:32.212Z,2.9
2018-06-21T10:09:32.244Z,2.9
2018-06-21T10:10:31.776Z,2.8
2018-06-21T10:11:32.666Z,2.9
2018-06-21T10:12:31.727Z,3.1
2018-06-21T10:13:31.713Z,2.8
2018-06-21T10:14:31.953Z,2.9
2018-06-21T10:15:31.776Z,3.1
2018-06-21T10:16:31.943Z,3.0
2018-06-21T10:17:32.242Z,2.9
2018-06-21T10:18:31.785Z,3.0
2018-06-21T10:19:32.744Z,2.9
2018-06-21T10:20:32.036Z,2.8
2018-06-21T10:21:32.188Z,3.0
2018-06-21T10:22:32.239Z,2.8
2018-06-21T10:23:31.778Z,3.0
2018-06-21T10:24:32.269Z,3.0
2018-06-21T10:25:32.151Z,3.0
2018-06-21T10:26:32.205Z,3.0
2018-06-21T10:27:32.123Z,3.2
2018-06-21T10:28:32.482Z,3.1
2018-06-21T10:29:32.000Z,3.2
2018-06-21T10:30:32.977Z,3.2
2018-06-21T10:31:32.187Z,3.3
2018-06-21T10:32:32.515Z,3.3
2018-06-21T10:33:32.195Z,3.1
2018-06-21T10:34:31.974Z,3.4
2018-06-21T10:36:24.060Z,3.1
2018-06-21T10:36:32.217Z,3.3
2018-06-21T10:37:31.792Z,3.2
2018-06-21T10:38:32.236Z,3.3
2018-06-21T10:39:32.224Z,3.5
2018-06-21T10:40:31.987Z,3.2
2018-06-21T10:41:31.862Z,3.4
2018-06-21T10:42:32.187Z,3.1
2018-06-21T10:43:32.560Z,3.2
2018-06-21T10:44:32.315Z,3.4
2018-06-21T10:45:31.894Z,3.5
2018-06-21T10:47:44.973Z,3.3
2018-06-21T10:48:44.989Z,3.4
2018-06-21T10:49:44.941Z,3.4
2018-06-21T10:50:44.947Z,3.6
2018-06-21T10:51:45.026Z,3.6
2018-06-21T10:52:44.943Z,3.5
2018-06-21T10:53:44.591Z,4.0
2018-06-21T10:54:45.538Z,3.7
2018-06-21T10:55:44.708Z,3.3
2018-06-21T10:56:44.684Z,3.7
2018-06-21T10:57:45.574Z,3.5
2018-06-21T10:58:44.908Z,3.6
2018-06-21T10:59:45.698Z,3.4
2018-06-21T11:00:44.696Z,3.8
2018-06-21T11:01:44.686Z,3.4
2018-06-21T11:02:44.518Z,3.4
2018-06-21T11:03:44.728Z,3.5
2018-06-21T11:04:44.659Z,3.8
2018-06-21T11:05:45.038Z,3.2
2018-06-21T11:06:44.573Z,3.5
2018-06-21T11:07:46.766Z,3.4
2018-06-21T11:08:44.799Z,3.8
2018-06-21T11:09:44.891Z,3.1
2018-06-21T11:10:44.524Z,3.6
2018-06-21T11:11:44.718Z,3.5
2018-06-21T11:12:44.899Z,3.6
2018-06-21T11:13:45.613Z,3.3
2018-06-21T11:14:45.410Z,3.8
2018-06-21T11:15:44.738Z,3.7
2018-06-21T11:16:45.628Z,3.9
2018-06-21T11:17:44.978Z,3.8
2018-06-21T11:18:45.064Z,3.6
2018-06-21T11:19:44.756Z,3.5
2018-06-21T11:20:45.466Z,3.7
2018-06-21T11:21:44.538Z,3.5
2018-06-21T11:22:45.564Z,3.6
2018-06-21T11:23:44.548Z,3.4
2018-06-21T11:24:45.036Z,3.6
2018-06-21T11:25:47.249Z,3.4
2018-06-21T11:26:45.206Z,3.4
2018-06-21T11:27:44.730Z,3.3
2018-06-21T11:28:45.135Z,3.5
2018-06-21T11:29:44.562Z,3.5
2018-06-21T11:30:44.991Z,3.5
2018-06-21T11:31:44.521Z,3.3
2018-06-21T11:32:44.996Z,3.4
2018-06-21T11:33:45.616Z,3.5
2018-06-21T11:34:44.935Z,3.4
2018-06-21T11:45:37.851Z,3.0
2018-06-21T11:46:37.916Z,2.9
2018-06-21T11:47:37.537Z,3.1
2018-06-21T11:48:38.614Z,3.1
2018-06-21T11:49:37.592Z,3.3
2018-06-21T11:50:38.581Z,3.5
2018-06-21T11:51:37.826Z,3.5
2018-06-21T11:52:37.829Z,3.3
2018-06-21T11:53:37.840Z,3.4
2018-06-21T11:54:37.984Z,3.2
2018-06-21T11:56:50.600Z,3.4
2018-06-21T11:57:51.053Z,3.2
2018-06-21T11:58:51.834Z,3.4
2018-06-21T11:59:52.332Z,3.6
2018-06-21T12:00:50.836Z,3.7
2018-06-21T12:01:50.769Z,3.8
2018-06-21T12:02:51.079Z,3.5
2018-06-21T12:03:52.377Z,3.7
2018-06-21T12:04:50.619Z,3.8
2018-06-21T12:05:51.812Z,3.6
2018-06-21T12:16:37.504Z,3.6
2018-06-21T12:16:47.424Z,3.4
2018-06-21T12:17:47.176Z,3.7
2018-06-21T12:18:46.801Z,3.7
2018-06-21T12:19:47.369Z,3.6
2018-06-21T12:20:47.041Z,3.4
2018-06-21T12:21:47.285Z,3.6
2018-06-21T12:22:47.278Z,3.5
2018-06-21T12:23:47.238Z,3.3
2018-06-21T12:24:46.977Z,3.8
2018-06-21T12:26:59.783Z,3.3
2018-06-21T12:27:59.378Z,3.6
2018-06-21T12:28:59.576Z,3.5
2018-06-21T12:30:00.082Z,3.1
2018-06-21T12:31:00.264Z,3.6
2018-06-21T12:31:59.580Z,3.2
2018-06-21T12:32:59.813Z,3.2
2018-06-21T12:33:59.500Z,3.5
2018-06-21T12:34:59.296Z,3.6
2018-06-21T12:35:59.805Z,3.2
2018-06-21T12:36:59.953Z,3.4
2018-06-21T12:37:59.837Z,3.2
2018-06-21T12:39:00.082Z,3.4
2018-06-21T12:39:59.427Z,3.3
2018-06-21T12:41:00.018Z,3.1
2018-06-21T12:42:00.518Z,3.1
2018-06-21T12:42:59.878Z,3.1
2018-06-21T12:43:59.581Z,3.2
2018-06-21T12:44:59.363Z,3.6
2018-06-21T12:45:59.350Z,3.3
2018-06-21T12:46:59.880Z,3.2
2018-06-21T12:47:59.844Z,3.9
2018-06-21T12:48:59.685Z,3.4
2018-06-21T12:49:59.868Z,3.3
2018-06-21T12:50:59.390Z,3.4
2018-06-21T12:51:59.908Z,3.6
2018-06-21T12:52:59.837Z,3.5
2018-06-21T12:53:59.485Z,3.3
2018-06-21T12:54:59.766Z,3.5
2018-06-21T12:55:59.355Z,3.2
2018-06-21T12:56:59.840Z,3.0
2018-06-21T12:57:59.465Z,3.2
2018-06-21T12:58:59.491Z,3.1
2018-06-21T12:59:59.373Z,3.0
2018-06-21T13:00:59.361Z,2.7
2018-06-21T13:01:59.804Z,3.0
2018-06-21T13:02:59.905Z,3.2
2018-06-21T13:03:59.657Z,3.2
2018-06-21T13:04:59.715Z,3.2
2018-06-21T13:06:00.078Z,3.3
2018-06-21T13:07:00.397Z,3.2
2018-06-21T13:07:59.947Z,3.3
2018-06-21T13:09:00.328Z,3.1
2018-06-21T13:09:59.907Z,3.2
2018-06-21T13:10:59.934Z,3.2
2018-06-21T13:11:59.820Z,3.3
2018-06-21T13:12:59.797Z,2.9
2018-06-21T13:13:59.381Z,3.1
2018-06-21T13:14:59.958Z,3.2
2018-06-21T13:16:02.566Z,3.1
2018-06-21T13:16:59.409Z,3.1
2018-06-21T13:17:59.901Z,3.2
2018-06-21T13:19:59.351Z,3.1
2018-06-21T13:20:59.672Z,2.9
2018-06-21T13:21:59.654Z,2.9
2018-06-21T13:22:59.586Z,3.0
2018-06-21T13:23:59.590Z,2.9
2018-06-21T13:25:00.040Z,2.6
2018-06-21T13:26:01.750Z,2.8
2018-06-21T13:26:59.369Z,2.7
2018-06-21T13:27:59.434Z,2.7
2018-06-21T13:28:59.533Z,2.6
2018-06-21T13:29:59.829Z,2.6
2018-06-21T13:30:59.396Z,2.7
2018-06-21T13:31:59.848Z,2.7
2018-06-21T13:33:00.086Z,2.5
2018-06-21T13:33:59.553Z,2.4
2018-06-21T13:34:59.811Z,2.4
2018-06-21T13:35:59.424Z,2.3
2018-06-21T13:37:00.092Z,2.3
2018-06-21T13:37:59.945Z,2.4
2018-06-21T13:38:59.375Z,2.3
2018-06-21T13:39:59.820Z,2.3
2018-06-21T13:40:59.936Z,2.1
2018-06-21T13:41:59.624Z,2.2
2018-06-21T13:42:59.942Z,2.2
2018-06-21T13:43:59.863Z,1.9
2018-06-21T13:44:59.823Z,1.9
2018-06-21T13:45:59.978Z,1.8
2018-06-21T13:46:59.941Z,1.9
2018-06-21T13:47:59.654Z,2.0
2018-06-21T13:48:59.443Z,1.8
2018-06-21T13:49:59.938Z,1.8
2018-06-21T13:50:59.985Z,1.8
2018-06-21T13:51:59.425Z,1.6
2018-06-21T13:52:59.469Z,1.7
2018-06-21T13:53:59.416Z,1.9
2018-06-21T13:54:59.882Z,1.9
2018-06-21T13:55:59.591Z,1.8
2018-06-21T13:56:59.852Z,1.9
2018-06-21T13:58:00.015Z,1.8
2018-06-21T13:58:59.969Z,1.9
2018-06-21T13:59:59.873Z,1.8
2018-06-21T14:00:59.448Z,1.9
2018-06-21T14:01:59.825Z,1.8
2018-06-21T14:02:59.676Z,1.7
2018-06-21T14:03:59.627Z,1.8
2018-06-21T14:04:59.462Z,1.9
2018-06-21T14:05:59.912Z,2.0
2018-06-21T14:06:59.988Z,2.2
2018-06-21T14:08:00.021Z,1.6
2018-06-21T14:08:59.969Z,2.1
2018-06-21T14:09:59.667Z,1.8
2018-06-21T14:10:59.401Z,2.0
2018-06-21T14:12:15.907Z,1.9
2018-06-21T14:12:59.790Z,2.0
2018-06-21T14:15:00.275Z,2.0
2018-06-21T14:15:59.909Z,2.1
2018-06-21T14:17:02.232Z,2.0
2018-06-21T14:18:00.038Z,2.2
2018-06-21T14:19:00.990Z,3.4
2018-06-21T14:20:00.030Z,3.3
2018-06-21T14:20:59.624Z,2.9
2018-06-21T14:22:10.170Z,3.0
2018-06-21T14:23:00.047Z,3.2
2018-06-21T14:24:00.310Z,2.8
2018-06-21T14:24:59.913Z,2.7
2018-06-21T14:26:01.964Z,2.8
2018-06-21T14:27:00.173Z,2.5
2018-06-21T14:28:00.685Z,2.9
2018-06-21T14:29:00.731Z,2.8
2018-06-21T14:30:00.169Z,2.8
2018-06-21T14:31:00.067Z,2.7
2018-06-21T14:32:00.563Z,2.9
2018-06-21T14:33:02.161Z,2.6
2018-06-21T14:33:59.872Z,2.7
2018-06-21T14:35:00.358Z,2.9
2018-06-21T14:35:59.934Z,2.8
2018-06-21T14:37:00.270Z,2.7
2018-06-21T14:37:59.739Z,2.5